sensor_id;sensor_type;location;lat;lon;timestamp;pressure;altitude;pressure_sealevel;temperature;humidity
18137;BME280;9194;42.632;23.298;2022-08-01T00:03:14;92532.66;;;17.96;80.66
18137;BME280;9194;42.632;23.298;2022-08-01T00:08:15;92525.84;;;17.90;84.19
18137;BME280;9194;42.632;23.298;2022-08-01T00:13:16;92529.56;;;17.69;83.39
18137;BME280;9194;42.632;23.298;2022-08-01T00:18:17;92527.97;;;17.57;79.34
18137;BME280;9194;42.632;23.298;2022-08-01T00:23:19;92530.09;;;17.50;85.66
18137;BME280;9194;42.632;23.298;2022-08-01T00:28:20;92527.19;;;17.42;90.80
18137;BME280;9194;42.632;23.298;2022-08-01T00:33:21;92521.16;;;17.41;83.88
18137;BME280;9194;42.632;23.298;2022-08-01T00:38:25;92518.53;;;17.41;75.04
18137;BME280;9194;42.632;23.298;2022-08-01T00:43:26;92520.63;;;17.34;82.01
18137;BME280;9194;42.632;23.298;2022-08-01T00:48:27;92522.47;;;17.29;75.74
18137;BME280;9194;42.632;23.298;2022-08-01T00:53:29;92526.13;;;17.43;69.62
18137;BME280;9194;42.632;23.298;2022-08-01T00:58:30;92519.31;;;17.37;77.01
18137;BME280;9194;42.632;23.298;2022-08-01T01:03:33;92515.38;;;17.19;83.59
18137;BME280;9194;42.632;23.298;2022-08-01T01:08:42;92510.66;;;17.16;79.23
18137;BME280;9194;42.632;23.298;2022-08-01T01:14:01;92523.50;;;17.12;77.46
18137;BME280;9194;42.632;23.298;2022-08-01T01:19:09;92502.47;;;17.07;81.82
18137;BME280;9194;42.632;23.298;2022-08-01T01:24:40;92503.53;;;16.96;84.85
18137;BME280;9194;42.632;23.298;2022-08-01T01:29:46;92493.00;;;16.86;84.52
18137;BME280;9194;42.632;23.298;2022-08-01T01:34:50;92496.44;;;16.97;73.13
18137;BME280;9194;42.632;23.298;2022-08-01T01:39:54;92494.34;;;17.29;65.83
18137;BME280;9194;42.632;23.298;2022-08-01T01:44:57;92473.50;;;17.43;60.56
18137;BME280;9194;42.632;23.298;2022-08-01T01:49:59;92482.72;;;17.45;59.76
18137;BME280;9194;42.632;23.298;2022-08-01T01:55:05;92475.88;;;17.64;60.22
18137;BME280;9194;42.632;23.298;2022-08-01T02:00:10;92469.84;;;17.34;67.28
18137;BME280;9194;42.632;23.298;2022-08-01T02:05:13;92475.66;;;17.15;68.45
18137;BME280;9194;42.632;23.298;2022-08-01T02:10:15;92471.19;;;16.96;71.71
18137;BME280;9194;42.632;23.298;2022-08-01T02:15:17;92479.63;;;16.88;71.29
18137;BME280;9194;42.632;23.298;2022-08-01T02:20:19;92466.44;;;16.72;69.79
18137;BME280;9194;42.632;23.298;2022-08-01T02:25:29;92454.88;;;16.78;63.21
18137;BME280;9194;42.632;23.298;2022-08-01T02:30:38;92451.19;;;16.90;63.88
18137;BME280;9194;42.632;23.298;2022-08-01T02:35:41;92450.63;;;17.38;59.34
18137;BME280;9194;42.632;23.298;2022-08-01T02:40:45;92457.72;;;17.48;61.97
18137;BME280;9194;42.632;23.298;2022-08-01T02:45:52;92459.81;;;17.51;60.83
18137;BME280;9194;42.632;23.298;2022-08-01T02:51:00;92450.41;;;17.30;65.84
18137;BME280;9194;42.632;23.298;2022-08-01T02:56:04;92442.78;;;17.23;62.18
18137;BME280;9194;42.632;23.298;2022-08-01T03:01:07;92448.50;;;17.55;59.89
18137;BME280;9194;42.632;23.298;2022-08-01T03:06:09;92447.19;;;17.68;60.03
18137;BME280;9194;42.632;23.298;2022-08-01T03:11:12;92440.53;;;17.86;59.21
18137;BME280;9194;42.632;23.298;2022-08-01T03:16:15;92449.44;;;17.95;61.35
18137;BME280;9194;42.632;23.298;2022-08-01T03:21:18;92453.13;;;17.99;58.48
18137;BME280;9194;42.632;23.298;2022-08-01T03:26:21;92448.94;;;17.93;61.35
18137;BME280;9194;42.632;23.298;2022-08-01T03:31:23;92446.31;;;17.88;60.27
18137;BME280;9194;42.632;23.298;2022-08-01T03:36:28;92453.97;;;17.84;59.96
18137;BME280;9194;42.632;23.298;2022-08-01T03:41:39;92455.19;;;18.07;61.25
18137;BME280;9194;42.632;23.298;2022-08-01T03:47:07;92455.69;;;18.14;60.94
18137;BME280;9194;42.632;23.298;2022-08-01T03:52:10;92450.94;;;18.16;59.17
18137;BME280;9194;42.632;23.298;2022-08-01T03:57:12;92449.03;;;18.27;59.52
18137;BME280;9194;42.632;23.298;2022-08-01T04:02:14;92447.19;;;18.27;61.59
18137;BME280;9194;42.632;23.298;2022-08-01T04:07:28;92448.78;;;18.28;58.93
18137;BME280;9194;42.632;23.298;2022-08-01T04:12:30;92448.25;;;18.26;61.67
18137;BME280;9194;42.632;23.298;2022-08-01T04:17:32;92450.00;;;18.46;60.29
18137;BME280;9194;42.632;23.298;2022-08-01T04:22:33;92457.25;;;18.64;59.15
18137;BME280;9194;42.632;23.298;2022-08-01T04:27:37;92466.22;;;18.68;59.29
18137;BME280;9194;42.632;23.298;2022-08-01T04:32:41;92450.50;;;18.92;57.93
18137;BME280;9194;42.632;23.298;2022-08-01T04:37:47;92451.78;;;18.95;57.65
18137;BME280;9194;42.632;23.298;2022-08-01T04:42:49;92452.91;;;19.17;56.41
18137;BME280;9194;42.632;23.298;2022-08-01T04:47:51;92455.50;;;19.22;58.08
18137;BME280;9194;42.632;23.298;2022-08-01T04:58:30;92447.34;;;19.53;55.61
18137;BME280;9194;42.632;23.298;2022-08-01T05:03:32;92456.56;;;19.55;55.08
18137;BME280;9194;42.632;23.298;2022-08-01T05:08:34;92463.63;;;19.60;57.46
18137;BME280;9194;42.632;23.298;2022-08-01T05:13:37;92436.06;;;19.71;55.52
18137;BME280;9194;42.632;23.298;2022-08-01T05:18:38;92442.59;;;19.79;54.75
18137;BME280;9194;42.632;23.298;2022-08-01T05:23:40;92455.28;;;19.77;54.66
18137;BME280;9194;42.632;23.298;2022-08-01T05:28:41;92448.41;;;19.76;57.19
18137;BME280;9194;42.632;23.298;2022-08-01T05:33:43;92444.59;;;19.87;55.73
18137;BME280;9194;42.632;23.298;2022-08-01T05:38:44;92450.97;;;20.04;54.75
18137;BME280;9194;42.632;23.298;2022-08-01T05:43:45;92450.31;;;19.94;55.48
18137;BME280;9194;42.632;23.298;2022-08-01T05:48:47;92445.31;;;19.92;55.92
18137;BME280;9194;42.632;23.298;2022-08-01T05:53:48;92449.66;;;20.07;59.30
18137;BME280;9194;42.632;23.298;2022-08-01T05:58:50;92459.09;;;20.13;56.02
18137;BME280;9194;42.632;23.298;2022-08-01T06:03:51;92444.03;;;20.14;56.55
18137;BME280;9194;42.632;23.298;2022-08-01T06:08:55;92457.63;;;20.26;55.98
18137;BME280;9194;42.632;23.298;2022-08-01T06:13:56;92448.16;;;20.43;56.88
18137;BME280;9194;42.632;23.298;2022-08-01T06:18:57;92455.94;;;20.35;55.28
18137;BME280;9194;42.632;23.298;2022-08-01T06:23:58;92461.31;;;20.48;55.99
18137;BME280;9194;42.632;23.298;2022-08-01T06:29:00;92460.25;;;20.49;55.27
18137;BME280;9194;42.632;23.298;2022-08-01T06:34:01;92454.97;;;20.49;57.09
18137;BME280;9194;42.632;23.298;2022-08-01T06:39:02;92445.09;;;20.55;57.95
18137;BME280;9194;42.632;23.298;2022-08-01T06:44:04;92452.25;;;20.73;55.89
18137;BME280;9194;42.632;23.298;2022-08-01T06:49:08;92450.06;;;20.75;56.28
18137;BME280;9194;42.632;23.298;2022-08-01T06:54:09;92445.78;;;20.79;56.36
18137;BME280;9194;42.632;23.298;2022-08-01T06:59:10;92447.88;;;20.64;56.62
18137;BME280;9194;42.632;23.298;2022-08-01T07:04:11;92440.47;;;20.79;58.95
18137;BME280;9194;42.632;23.298;2022-08-01T07:09:13;92429.84;;;20.84;57.83
18137;BME280;9194;42.632;23.298;2022-08-01T07:14:14;92438.13;;;20.97;57.10
18137;BME280;9194;42.632;23.298;2022-08-01T07:19:16;92441.44;;;21.21;57.06
18137;BME280;9194;42.632;23.298;2022-08-01T07:24:17;92430.25;;;21.43;58.91
18137;BME280;9194;42.632;23.298;2022-08-01T07:29:20;92446.00;;;21.34;58.03
18137;BME280;9194;42.632;23.298;2022-08-01T07:34:22;92440.44;;;21.49;55.71
18137;BME280;9194;42.632;23.298;2022-08-01T07:39:23;92437.06;;;21.76;56.93
18137;BME280;9194;42.632;23.298;2022-08-01T07:44:25;92440.69;;;22.21;56.90
18137;BME280;9194;42.632;23.298;2022-08-01T07:49:26;92441.81;;;22.70;54.06
18137;BME280;9194;42.632;23.298;2022-08-01T07:54:27;92431.81;;;23.56;52.33
18137;BME280;9194;42.632;23.298;2022-08-01T07:59:30;92442.69;;;23.46;51.92
18137;BME280;9194;42.632;23.298;2022-08-01T08:04:31;92444.75;;;23.49;52.92
18137;BME280;9194;42.632;23.298;2022-08-01T08:09:32;92433.75;;;23.19;51.78
18137;BME280;9194;42.632;23.298;2022-08-01T08:14:34;92443.09;;;22.72;51.98
18137;BME280;9194;42.632;23.298;2022-08-01T08:19:35;92440.22;;;23.05;53.85
18137;BME280;9194;42.632;23.298;2022-08-01T08:24:38;92440.97;;;22.33;52.76
18137;BME280;9194;42.632;23.298;2022-08-01T08:29:40;92440.28;;;22.41;53.44
18137;BME280;9194;42.632;23.298;2022-08-01T08:34:41;92443.09;;;22.59;52.93
18137;BME280;9194;42.632;23.298;2022-08-01T08:39:43;92442.88;;;22.69;53.65
18137;BME280;9194;42.632;23.298;2022-08-01T08:44:45;92434.72;;;22.79;53.75
18137;BME280;9194;42.632;23.298;2022-08-01T08:49:48;92438.91;;;22.44;52.84
18137;BME280;9194;42.632;23.298;2022-08-01T08:54:51;92425.13;;;22.91;53.07
18137;BME280;9194;42.632;23.298;2022-08-01T08:59:52;92434.47;;;22.89;52.10
18137;BME280;9194;42.632;23.298;2022-08-01T09:04:55;92424.28;;;22.82;52.27
18137;BME280;9194;42.632;23.298;2022-08-01T09:09:57;92423.53;;;22.54;51.34
18137;BME280;9194;42.632;23.298;2022-08-01T09:14:59;92431.72;;;22.94;53.13
18137;BME280;9194;42.632;23.298;2022-08-01T09:20:00;92403.19;;;23.00;52.03
18137;BME280;9194;42.632;23.298;2022-08-01T09:30:17;92404.97;;;23.13;52.21
18137;BME280;9194;42.632;23.298;2022-08-01T09:35:25;92416.13;;;22.79;50.92
18137;BME280;9194;42.632;23.298;2022-08-01T09:40:44;92411.84;;;23.14;54.47
18137;BME280;9194;42.632;23.298;2022-08-01T09:45:45;92404.63;;;23.06;51.84
18137;BME280;9194;42.632;23.298;2022-08-01T09:50:48;92414.22;;;23.15;53.77
18137;BME280;9194;42.632;23.298;2022-08-01T09:55:50;92406.56;;;23.45;54.29
18137;BME280;9194;42.632;23.298;2022-08-01T10:00:59;92414.00;;;23.56;52.77
18137;BME280;9194;42.632;23.298;2022-08-01T10:06:18;92416.41;;;23.44;51.28
18137;BME280;9194;42.632;23.298;2022-08-01T10:11:20;92413.47;;;23.77;52.00
18137;BME280;9194;42.632;23.298;2022-08-01T10:16:23;92395.22;;;24.32;51.25
18137;BME280;9194;42.632;23.298;2022-08-01T10:21:27;92400.03;;;24.21;50.33
18137;BME280;9194;42.632;23.298;2022-08-01T10:26:29;92389.16;;;23.92;51.81
18137;BME280;9194;42.632;23.298;2022-08-01T10:31:33;92397.38;;;24.21;48.94
18137;BME280;9194;42.632;23.298;2022-08-01T10:36:34;92374.25;;;24.39;49.84
18137;BME280;9194;42.632;23.298;2022-08-01T10:41:40;92398.19;;;24.30;49.15
18137;BME280;9194;42.632;23.298;2022-08-01T10:46:52;92393.34;;;24.58;50.06
18137;BME280;9194;42.632;23.298;2022-08-01T10:51:55;92394.66;;;24.12;47.88
18137;BME280;9194;42.632;23.298;2022-08-01T10:56:59;92386.47;;;24.40;48.57
18137;BME280;9194;42.632;23.298;2022-08-01T11:02:03;92390.03;;;24.27;50.42
18137;BME280;9194;42.632;23.298;2022-08-01T11:07:07;92372.50;;;24.26;48.72
18137;BME280;9194;42.632;23.298;2022-08-01T11:12:13;92374.72;;;24.58;49.31
18137;BME280;9194;42.632;23.298;2022-08-01T11:17:36;92380.22;;;24.62;49.32
18137;BME280;9194;42.632;23.298;2022-08-01T11:33:17;92370.03;;;24.46;49.72
18137;BME280;9194;42.632;23.298;2022-08-01T11:38:23;92364.25;;;24.96;48.75
18137;BME280;9194;42.632;23.298;2022-08-01T11:49:47;92362.66;;;25.12;48.74
18137;BME280;9194;42.632;23.298;2022-08-01T12:00:29;92360.97;;;24.90;50.56
18137;BME280;9194;42.632;23.298;2022-08-01T12:05:34;92348.34;;;25.34;50.49
18137;BME280;9194;42.632;23.298;2022-08-01T12:10:49;92362.16;;;25.36;49.60
18137;BME280;9194;42.632;23.298;2022-08-01T12:15:51;92354.84;;;24.99;49.12
18137;BME280;9194;42.632;23.298;2022-08-01T12:21:02;92361.91;;;24.94;49.05
18137;BME280;9194;42.632;23.298;2022-08-01T12:26:05;92367.84;;;24.74;48.60
18137;BME280;9194;42.632;23.298;2022-08-01T12:31:07;92358.47;;;24.51;49.50
18137;BME280;9194;42.632;23.298;2022-08-01T12:36:08;92368.78;;;24.78;51.51
18137;BME280;9194;42.632;23.298;2022-08-01T12:41:10;92360.19;;;24.90;49.54
18137;BME280;9194;42.632;23.298;2022-08-01T12:46:11;92362.97;;;25.11;49.85
18137;BME280;9194;42.632;23.298;2022-08-01T12:51:17;92368.63;;;24.66;48.80
18137;BME280;9194;42.632;23.298;2022-08-01T12:56:30;92353.06;;;24.17;51.35
18137;BME280;9194;42.632;23.298;2022-08-01T13:01:33;92350.59;;;24.29;51.25
18137;BME280;9194;42.632;23.298;2022-08-01T13:06:34;92349.63;;;24.16;48.98
18137;BME280;9194;42.632;23.298;2022-08-01T13:11:36;92359.50;;;24.24;49.13
18137;BME280;9194;42.632;23.298;2022-08-01T13:16:47;92350.47;;;24.34;49.87
18137;BME280;9194;42.632;23.298;2022-08-01T13:21:56;92356.72;;;24.55;48.77
18137;BME280;9194;42.632;23.298;2022-08-01T13:27:00;92364.25;;;24.62;50.52
18137;BME280;9194;42.632;23.298;2022-08-01T13:32:21;92355.16;;;24.45;48.69
18137;BME280;9194;42.632;23.298;2022-08-01T13:37:23;92343.75;;;24.45;49.60
18137;BME280;9194;42.632;23.298;2022-08-01T13:42:40;92339.81;;;24.60;49.36
18137;BME280;9194;42.632;23.298;2022-08-01T13:47:43;92338.88;;;24.55;49.05
18137;BME280;9194;42.632;23.298;2022-08-01T13:52:44;92340.44;;;24.74;50.01
18137;BME280;9194;42.632;23.298;2022-08-01T13:57:45;92332.31;;;24.79;50.34
18137;BME280;9194;42.632;23.298;2022-08-01T14:02:47;92337.94;;;24.77;50.14
18137;BME280;9194;42.632;23.298;2022-08-01T14:07:48;92339.50;;;24.70;49.08
18137;BME280;9194;42.632;23.298;2022-08-01T14:12:49;92331.03;;;24.76;49.75
18137;BME280;9194;42.632;23.298;2022-08-01T14:17:51;92333.88;;;24.80;50.18
18137;BME280;9194;42.632;23.298;2022-08-01T14:22:52;92324.00;;;24.72;49.90
18137;BME280;9194;42.632;23.298;2022-08-01T14:27:54;92345.91;;;24.77;49.89
18137;BME280;9194;42.632;23.298;2022-08-01T14:32:56;92337.31;;;24.80;50.90
18137;BME280;9194;42.632;23.298;2022-08-01T14:37:57;92339.50;;;24.61;49.38
18137;BME280;9194;42.632;23.298;2022-08-01T14:42:59;92339.22;;;24.63;50.20
18137;BME280;9194;42.632;23.298;2022-08-01T14:48:02;92349.84;;;24.63;49.26
18137;BME280;9194;42.632;23.298;2022-08-01T14:53:03;92347.78;;;25.20;48.54
18137;BME280;9194;42.632;23.298;2022-08-01T14:58:04;92345.50;;;25.56;47.22
18137;BME280;9194;42.632;23.298;2022-08-01T15:03:06;92348.00;;;25.61;49.01
18137;BME280;9194;42.632;23.298;2022-08-01T15:08:07;92351.31;;;25.41;48.62
18137;BME280;9194;42.632;23.298;2022-08-01T15:13:08;92349.56;;;25.62;47.54
18137;BME280;9194;42.632;23.298;2022-08-01T15:18:10;92348.28;;;25.51;49.21
18137;BME280;9194;42.632;23.298;2022-08-01T15:23:16;92342.19;;;25.51;49.26
18137;BME280;9194;42.632;23.298;2022-08-01T15:28:46;92345.13;;;25.66;48.93
18137;BME280;9194;42.632;23.298;2022-08-01T15:33:47;92347.44;;;25.76;47.65
18137;BME280;9194;42.632;23.298;2022-08-01T15:38:48;92351.13;;;25.46;48.04
18137;BME280;9194;42.632;23.298;2022-08-01T15:43:50;92350.22;;;25.42;48.39
18137;BME280;9194;42.632;23.298;2022-08-01T15:48:51;92349.47;;;25.33;50.96
18137;BME280;9194;42.632;23.298;2022-08-01T15:53:52;92355.19;;;24.97;48.88
18137;BME280;9194;42.632;23.298;2022-08-01T15:58:54;92349.38;;;24.86;48.81
18137;BME280;9194;42.632;23.298;2022-08-01T16:03:56;92351.56;;;24.50;49.45
18137;BME280;9194;42.632;23.298;2022-08-01T16:08:57;92346.56;;;24.40;49.59
18137;BME280;9194;42.632;23.298;2022-08-01T16:13:59;92360.16;;;24.30;49.56
18137;BME280;9194;42.632;23.298;2022-08-01T16:19:00;92361.16;;;24.03;50.67
18137;BME280;9194;42.632;23.298;2022-08-01T16:24:02;92359.41;;;23.81;51.21
18137;BME280;9194;42.632;23.298;2022-08-01T16:29:03;92368.31;;;23.85;52.07
18137;BME280;9194;42.632;23.298;2022-08-01T16:34:05;92356.44;;;23.91;51.86
18137;BME280;9194;42.632;23.298;2022-08-01T16:39:06;92355.56;;;24.04;51.21
18137;BME280;9194;42.632;23.298;2022-08-01T16:44:09;92371.31;;;24.01;49.97
18137;BME280;9194;42.632;23.298;2022-08-01T16:49:10;92368.13;;;23.73;52.02
18137;BME280;9194;42.632;23.298;2022-08-01T16:54:12;92374.69;;;23.45;50.75
18137;BME280;9194;42.632;23.298;2022-08-01T16:59:14;92374.75;;;23.22;51.46
18137;BME280;9194;42.632;23.298;2022-08-01T17:04:20;92379.75;;;23.02;51.57
18137;BME280;9194;42.632;23.298;2022-08-01T17:09:21;92378.13;;;22.92;55.48
18137;BME280;9194;42.632;23.298;2022-08-01T17:14:23;92377.63;;;22.68;53.29
18137;BME280;9194;42.632;23.298;2022-08-01T17:19:27;92384.75;;;22.59;51.14
18137;BME280;9194;42.632;23.298;2022-08-01T17:24:28;92385.03;;;22.57;51.95
18137;BME280;9194;42.632;23.298;2022-08-01T17:29:30;92389.28;;;22.44;51.14
18137;BME280;9194;42.632;23.298;2022-08-01T17:34:31;92393.50;;;22.45;50.23
18137;BME280;9194;42.632;23.298;2022-08-01T17:39:34;92398.94;;;22.40;48.88
18137;BME280;9194;42.632;23.298;2022-08-01T17:44:35;92408.19;;;22.29;50.82
18137;BME280;9194;42.632;23.298;2022-08-01T17:49:36;92417.56;;;22.13;50.91
18137;BME280;9194;42.632;23.298;2022-08-01T17:54:39;92417.41;;;21.91;49.68
18137;BME280;9194;42.632;23.298;2022-08-01T17:59:40;92422.34;;;21.97;50.30
18137;BME280;9194;42.632;23.298;2022-08-01T18:04:43;92441.19;;;21.96;51.54
18137;BME280;9194;42.632;23.298;2022-08-01T18:09:45;92442.66;;;21.88;51.00
18137;BME280;9194;42.632;23.298;2022-08-01T18:14:46;92447.66;;;21.90;50.56
18137;BME280;9194;42.632;23.298;2022-08-01T18:19:49;92452.97;;;22.03;49.96
18137;BME280;9194;42.632;23.298;2022-08-01T18:24:51;92461.81;;;21.99;50.13
18137;BME280;9194;42.632;23.298;2022-08-01T18:29:52;92462.84;;;21.84;52.81
18137;BME280;9194;42.632;23.298;2022-08-01T18:34:54;92478.84;;;21.79;51.53
18137;BME280;9194;42.632;23.298;2022-08-01T18:39:55;92484.06;;;21.70;52.14
18137;BME280;9194;42.632;23.298;2022-08-01T18:44:56;92489.03;;;21.58;52.04
18137;BME280;9194;42.632;23.298;2022-08-01T18:49:58;92493.50;;;21.44;53.47
18137;BME280;9194;42.632;23.298;2022-08-01T18:54:59;92503.47;;;21.34;52.87
18137;BME280;9194;42.632;23.298;2022-08-01T19:00:01;92507.50;;;21.12;54.08
18137;BME280;9194;42.632;23.298;2022-08-01T19:05:02;92521.16;;;21.01;55.98
18137;BME280;9194;42.632;23.298;2022-08-01T19:10:04;92531.81;;;20.77;55.31
18137;BME280;9194;42.632;23.298;2022-08-01T19:15:06;92527.88;;;20.56;58.39
18137;BME280;9194;42.632;23.298;2022-08-01T19:20:07;92532.03;;;20.38;59.16
18137;BME280;9194;42.632;23.298;2022-08-01T19:25:09;92537.78;;;20.16;61.25
18137;BME280;9194;42.632;23.298;2022-08-01T19:30:10;92541.91;;;20.03;61.49
18137;BME280;9194;42.632;23.298;2022-08-01T19:35:13;92548.41;;;19.87;65.22
18137;BME280;9194;42.632;23.298;2022-08-01T19:40:16;92545.06;;;19.77;67.72
18137;BME280;9194;42.632;23.298;2022-08-01T19:45:20;92545.50;;;19.60;70.47
18137;BME280;9194;42.632;23.298;2022-08-01T19:50:26;92540.31;;;19.50;70.82
18137;BME280;9194;42.632;23.298;2022-08-01T19:55:33;92551.94;;;19.44;69.54
18137;BME280;9194;42.632;23.298;2022-08-01T20:07:05;92545.78;;;19.19;75.06
18137;BME280;9194;42.632;23.298;2022-08-01T20:12:07;92535.53;;;19.13;77.47
18137;BME280;9194;42.632;23.298;2022-08-01T20:17:14;92547.22;;;19.02;77.66
18137;BME280;9194;42.632;23.298;2022-08-01T20:22:18;92553.38;;;18.92;79.28
18137;BME280;9194;42.632;23.298;2022-08-01T20:27:23;92555.22;;;18.92;78.60
18137;BME280;9194;42.632;23.298;2022-08-01T20:32:31;92556.28;;;18.91;81.57
18137;BME280;9194;42.632;23.298;2022-08-01T20:37:36;92559.19;;;18.89;81.52
18137;BME280;9194;42.632;23.298;2022-08-01T20:42:40;92555.00;;;18.83;85.12
18137;BME280;9194;42.632;23.298;2022-08-01T20:47:41;92553.44;;;18.77;85.20
18137;BME280;9194;42.632;23.298;2022-08-01T20:52:47;92566.16;;;18.65;87.63
18137;BME280;9194;42.632;23.298;2022-08-01T20:57:51;92561.16;;;18.58;89.24
18137;BME280;9194;42.632;23.298;2022-08-01T21:03:14;92549.53;;;18.64;85.70
18137;BME280;9194;42.632;23.298;2022-08-01T21:08:26;92550.38;;;18.50;88.52
18137;BME280;9194;42.632;23.298;2022-08-01T21:13:39;92552.22;;;18.54;85.36
18137;BME280;9194;42.632;23.298;2022-08-01T21:18:54;92553.81;;;18.55;85.09
18137;BME280;9194;42.632;23.298;2022-08-01T21:23:59;92559.31;;;18.54;85.55
18137;BME280;9194;42.632;23.298;2022-08-01T21:29:05;92557.75;;;18.63;83.25
18137;BME280;9194;42.632;23.298;2022-08-01T21:34:08;92547.19;;;18.53;86.67
18137;BME280;9194;42.632;23.298;2022-08-01T21:39:10;92556.44;;;18.50;84.96
18137;BME280;9194;42.632;23.298;2022-08-01T21:44:11;92547.75;;;18.50;84.56
18137;BME280;9194;42.632;23.298;2022-08-01T21:49:14;92545.16;;;18.44;84.83
18137;BME280;9194;42.632;23.298;2022-08-01T21:54:27;92549.34;;;18.51;81.08
18137;BME280;9194;42.632;23.298;2022-08-01T21:59:53;92544.31;;;18.49;80.23
18137;BME280;9194;42.632;23.298;2022-08-01T22:05:06;92540.63;;;18.50;79.34
18137;BME280;9194;42.632;23.298;2022-08-01T22:10:12;92541.09;;;18.67;78.17
18137;BME280;9194;42.632;23.298;2022-08-01T22:15:14;92539.00;;;18.64;78.56
18137;BME280;9194;42.632;23.298;2022-08-01T22:20:22;92528.78;;;18.58;80.23
18137;BME280;9194;42.632;23.298;2022-08-01T22:25:24;92527.69;;;18.54;83.16
18137;BME280;9194;42.632;23.298;2022-08-01T22:30:25;92518.28;;;18.37;86.02
18137;BME280;9194;42.632;23.298;2022-08-01T22:35:27;92518.53;;;18.41;78.58
18137;BME280;9194;42.632;23.298;2022-08-01T22:40:31;92511.63;;;18.50;78.53
18137;BME280;9194;42.632;23.298;2022-08-01T22:45:43;92521.16;;;18.46;72.16
18137;BME280;9194;42.632;23.298;2022-08-01T22:50:55;92516.41;;;18.43;73.05
18137;BME280;9194;42.632;23.298;2022-08-01T22:56:00;92510.06;;;18.49;71.31
18137;BME280;9194;42.632;23.298;2022-08-01T23:01:05;92508.41;;;18.68;67.46
18137;BME280;9194;42.632;23.298;2022-08-01T23:06:13;92513.22;;;18.56;73.55
18137;BME280;9194;42.632;23.298;2022-08-01T23:11:22;92505.34;;;18.41;72.67
18137;BME280;9194;42.632;23.298;2022-08-01T23:16:24;92514.16;;;18.21;78.34
18137;BME280;9194;42.632;23.298;2022-08-01T23:21:26;92509.44;;;18.13;74.41
18137;BME280;9194;42.632;23.298;2022-08-01T23:26:28;92505.78;;;18.04;76.91
18137;BME280;9194;42.632;23.298;2022-08-01T23:31:30;92497.38;;;17.97;73.31
18137;BME280;9194;42.632;23.298;2022-08-01T23:36:32;92493.69;;;17.98;73.46
18137;BME280;9194;42.632;23.298;2022-08-01T23:41:33;92488.13;;;18.04;74.26
18137;BME280;9194;42.632;23.298;2022-08-01T23:46:35;92488.94;;;18.05;70.19
18137;BME280;9194;42.632;23.298;2022-08-01T23:51:36;92492.63;;;18.04;74.37
18137;BME280;9194;42.632;23.298;2022-08-01T23:56:37;92494.16;;;18.10;74.90
